sensor_id;sensor_type;location;lat;lon;timestamp;P1;durP1;ratioP1;P2;durP2;ratioP2
13408;SDS011;6775;49.574;11.170;2023-12-22T00:00:17;4.90;;;1.37;;
13408;SDS011;6775;49.574;11.170;2023-12-22T00:02:45;4.87;;;1.13;;
13408;SDS011;6775;49.574;11.170;2023-12-22T00:05:13;4.37;;;1.33;;
13408;SDS011;6775;49.574;11.170;2023-12-22T00:07:42;2.47;;;0.90;;
13408;SDS011;6775;49.574;11.170;2023-12-22T00:10:10;3.50;;;1.03;;
13408;SDS011;6775;49.574;11.170;2023-12-22T00:12:39;4.90;;;1.07;;
13408;SDS011;6775;49.574;11.170;2023-12-22T00:15:08;3.90;;;1.10;;
13408;SDS011;6775;49.574;11.170;2023-12-22T00:17:36;2.67;;;1.53;;
13408;SDS011;6775;49.574;11.170;2023-12-22T00:20:05;3.03;;;1.00;;
13408;SDS011;6775;49.574;11.170;2023-12-22T00:22:37;4.03;;;1.13;;
13408;SDS011;6775;49.574;11.170;2023-12-22T00:25:05;3.67;;;1.00;;
13408;SDS011;6775;49.574;11.170;2023-12-22T00:27:36;3.27;;;0.80;;
13408;SDS011;6775;49.574;11.170;2023-12-22T00:30:06;6.50;;;1.00;;
13408;SDS011;6775;49.574;11.170;2023-12-22T00:32:35;2.47;;;0.73;;
13408;SDS011;6775;49.574;11.170;2023-12-22T00:35:04;1.80;;;0.80;;
13408;SDS011;6775;49.574;11.170;2023-12-22T00:37:33;2.60;;;0.73;;
13408;SDS011;6775;49.574;11.170;2023-12-22T00:40:01;6.67;;;0.90;;
13408;SDS011;6775;49.574;11.170;2023-12-22T00:42:31;4.07;;;1.00;;
13408;SDS011;6775;49.574;11.170;2023-12-22T00:44:59;2.30;;;0.90;;
13408;SDS011;6775;49.574;11.170;2023-12-22T00:47:28;2.60;;;0.93;;
13408;SDS011;6775;49.574;11.170;2023-12-22T00:49:57;2.60;;;0.97;;
13408;SDS011;6775;49.574;11.170;2023-12-22T00:52:25;4.10;;;1.20;;
13408;SDS011;6775;49.574;11.170;2023-12-22T00:54:53;4.00;;;1.03;;
13408;SDS011;6775;49.574;11.170;2023-12-22T00:57:21;4.40;;;0.87;;
13408;SDS011;6775;49.574;11.170;2023-12-22T00:59:50;3.57;;;1.10;;
13408;SDS011;6775;49.574;11.170;2023-12-22T01:02:18;3.43;;;0.87;;
13408;SDS011;6775;49.574;11.170;2023-12-22T01:04:48;2.30;;;0.77;;
13408;SDS011;6775;49.574;11.170;2023-12-22T01:07:17;3.73;;;1.40;;
13408;SDS011;6775;49.574;11.170;2023-12-22T01:09:45;3.47;;;1.00;;
13408;SDS011;6775;49.574;11.170;2023-12-22T01:12:13;2.20;;;0.80;;
13408;SDS011;6775;49.574;11.170;2023-12-22T01:14:42;3.50;;;1.30;;
13408;SDS011;6775;49.574;11.170;2023-12-22T01:17:11;3.97;;;1.00;;
13408;SDS011;6775;49.574;11.170;2023-12-22T01:19:39;2.50;;;0.90;;
13408;SDS011;6775;49.574;11.170;2023-12-22T01:22:09;1.97;;;0.80;;
13408;SDS011;6775;49.574;11.170;2023-12-22T01:24:37;1.77;;;0.80;;
13408;SDS011;6775;49.574;11.170;2023-12-22T01:27:09;4.10;;;1.23;;
13408;SDS011;6775;49.574;11.170;2023-12-22T01:29:37;3.17;;;0.97;;
13408;SDS011;6775;49.574;11.170;2023-12-22T01:32:05;2.80;;;0.87;;
13408;SDS011;6775;49.574;11.170;2023-12-22T01:34:34;5.10;;;1.30;;
13408;SDS011;6775;49.574;11.170;2023-12-22T01:37:02;4.03;;;0.83;;
13408;SDS011;6775;49.574;11.170;2023-12-22T01:39:32;3.07;;;0.90;;
13408;SDS011;6775;49.574;11.170;2023-12-22T01:42:00;3.17;;;1.10;;
13408;SDS011;6775;49.574;11.170;2023-12-22T01:44:28;2.13;;;0.67;;
13408;SDS011;6775;49.574;11.170;2023-12-22T01:46:56;1.83;;;0.90;;
13408;SDS011;6775;49.574;11.170;2023-12-22T01:49:25;3.97;;;0.90;;
13408;SDS011;6775;49.574;11.170;2023-12-22T01:51:56;2.37;;;0.60;;
13408;SDS011;6775;49.574;11.170;2023-12-22T01:54:24;1.97;;;0.80;;
13408;SDS011;6775;49.574;11.170;2023-12-22T01:56:55;2.13;;;0.70;;
13408;SDS011;6775;49.574;11.170;2023-12-22T01:59:23;3.17;;;1.13;;
13408;SDS011;6775;49.574;11.170;2023-12-22T02:01:52;3.00;;;0.90;;
13408;SDS011;6775;49.574;11.170;2023-12-22T02:04:21;4.83;;;0.80;;
13408;SDS011;6775;49.574;11.170;2023-12-22T02:06:51;0.87;;;0.60;;
13408;SDS011;6775;49.574;11.170;2023-12-22T02:09:20;4.00;;;1.17;;
13408;SDS011;6775;49.574;11.170;2023-12-22T02:11:48;1.90;;;0.77;;
13408;SDS011;6775;49.574;11.170;2023-12-22T02:14:18;1.90;;;0.60;;
13408;SDS011;6775;49.574;11.170;2023-12-22T02:16:49;2.43;;;0.67;;
13408;SDS011;6775;49.574;11.170;2023-12-22T02:19:32;1.47;;;0.67;;
13408;SDS011;6775;49.574;11.170;2023-12-22T02:22:10;1.67;;;0.67;;
13408;SDS011;6775;49.574;11.170;2023-12-22T02:24:41;1.20;;;0.63;;
13408;SDS011;6775;49.574;11.170;2023-12-22T02:27:19;3.60;;;0.70;;
13408;SDS011;6775;49.574;11.170;2023-12-22T02:29:57;3.40;;;0.80;;
13408;SDS011;6775;49.574;11.170;2023-12-22T02:32:36;2.63;;;0.67;;
13408;SDS011;6775;49.574;11.170;2023-12-22T02:35:10;1.30;;;0.60;;
13408;SDS011;6775;49.574;11.170;2023-12-22T02:37:42;1.63;;;0.50;;
13408;SDS011;6775;49.574;11.170;2023-12-22T02:40:16;1.93;;;0.80;;
13408;SDS011;6775;49.574;11.170;2023-12-22T02:42:45;2.73;;;1.33;;
13408;SDS011;6775;49.574;11.170;2023-12-22T02:45:15;2.30;;;0.70;;
13408;SDS011;6775;49.574;11.170;2023-12-22T02:47:45;2.23;;;0.57;;
13408;SDS011;6775;49.574;11.170;2023-12-22T02:50:14;1.57;;;0.80;;
13408;SDS011;6775;49.574;11.170;2023-12-22T02:52:44;0.90;;;0.53;;
13408;SDS011;6775;49.574;11.170;2023-12-22T02:55:12;2.70;;;0.73;;
13408;SDS011;6775;49.574;11.170;2023-12-22T02:57:42;3.23;;;0.67;;
13408;SDS011;6775;49.574;11.170;2023-12-22T03:00:11;0.93;;;0.53;;
13408;SDS011;6775;49.574;11.170;2023-12-22T03:02:39;3.13;;;0.73;;
13408;SDS011;6775;49.574;11.170;2023-12-22T03:05:07;1.30;;;0.53;;
13408;SDS011;6775;49.574;11.170;2023-12-22T03:07:36;0.50;;;0.40;;
13408;SDS011;6775;49.574;11.170;2023-12-22T03:10:04;0.30;;;0.30;;
13408;SDS011;6775;49.574;11.170;2023-12-22T03:12:33;3.27;;;0.70;;
13408;SDS011;6775;49.574;11.170;2023-12-22T03:15:03;1.30;;;0.73;;
13408;SDS011;6775;49.574;11.170;2023-12-22T03:17:33;1.13;;;0.60;;
13408;SDS011;6775;49.574;11.170;2023-12-22T03:20:01;1.17;;;0.50;;
13408;SDS011;6775;49.574;11.170;2023-12-22T03:22:30;1.10;;;0.60;;
13408;SDS011;6775;49.574;11.170;2023-12-22T03:24:58;0.40;;;0.40;;
13408;SDS011;6775;49.574;11.170;2023-12-22T03:27:26;0.40;;;0.40;;
13408;SDS011;6775;49.574;11.170;2023-12-22T03:29:54;0.43;;;0.43;;
13408;SDS011;6775;49.574;11.170;2023-12-22T03:32:23;0.50;;;0.40;;
13408;SDS011;6775;49.574;11.170;2023-12-22T03:34:51;2.50;;;0.50;;
13408;SDS011;6775;49.574;11.170;2023-12-22T03:37:19;0.67;;;0.40;;
13408;SDS011;6775;49.574;11.170;2023-12-22T03:39:47;1.13;;;0.37;;
13408;SDS011;6775;49.574;11.170;2023-12-22T03:42:15;0.90;;;0.43;;
13408;SDS011;6775;49.574;11.170;2023-12-22T03:44:43;1.23;;;0.60;;
13408;SDS011;6775;49.574;11.170;2023-12-22T03:47:12;1.70;;;0.53;;
13408;SDS011;6775;49.574;11.170;2023-12-22T03:49:42;0.30;;;0.30;;
13408;SDS011;6775;49.574;11.170;2023-12-22T03:52:11;1.13;;;0.20;;
13408;SDS011;6775;49.574;11.170;2023-12-22T03:54:40;0.30;;;0.20;;
13408;SDS011;6775;49.574;11.170;2023-12-22T03:57:08;0.43;;;0.30;;
13408;SDS011;6775;49.574;11.170;2023-12-22T03:59:36;0.63;;;0.30;;
13408;SDS011;6775;49.574;11.170;2023-12-22T04:02:05;0.73;;;0.37;;
13408;SDS011;6775;49.574;11.170;2023-12-22T04:04:36;0.87;;;0.20;;
13408;SDS011;6775;49.574;11.170;2023-12-22T04:07:06;0.30;;;0.30;;
13408;SDS011;6775;49.574;11.170;2023-12-22T04:09:36;0.50;;;0.30;;
13408;SDS011;6775;49.574;11.170;2023-12-22T04:12:05;1.10;;;0.50;;
13408;SDS011;6775;49.574;11.170;2023-12-22T04:14:34;1.50;;;0.43;;
13408;SDS011;6775;49.574;11.170;2023-12-22T04:17:02;0.77;;;0.50;;
13408;SDS011;6775;49.574;11.170;2023-12-22T04:19:30;1.63;;;0.60;;
13408;SDS011;6775;49.574;11.170;2023-12-22T04:21:59;3.50;;;0.70;;
13408;SDS011;6775;49.574;11.170;2023-12-22T04:24:28;3.53;;;0.60;;
13408;SDS011;6775;49.574;11.170;2023-12-22T04:26:56;3.57;;;0.50;;
13408;SDS011;6775;49.574;11.170;2023-12-22T04:29:24;0.60;;;0.40;;
13408;SDS011;6775;49.574;11.170;2023-12-22T04:31:52;3.10;;;0.40;;
13408;SDS011;6775;49.574;11.170;2023-12-22T04:34:21;1.37;;;0.67;;
13408;SDS011;6775;49.574;11.170;2023-12-22T04:36:49;3.90;;;0.67;;
13408;SDS011;6775;49.574;11.170;2023-12-22T04:39:17;0.63;;;0.30;;
13408;SDS011;6775;49.574;11.170;2023-12-22T04:41:48;0.97;;;0.50;;
13408;SDS011;6775;49.574;11.170;2023-12-22T04:44:16;2.10;;;0.50;;
13408;SDS011;6775;49.574;11.170;2023-12-22T04:46:44;1.07;;;0.57;;
13408;SDS011;6775;49.574;11.170;2023-12-22T04:49:12;1.23;;;0.40;;
13408;SDS011;6775;49.574;11.170;2023-12-22T04:51:40;2.07;;;0.50;;
13408;SDS011;6775;49.574;11.170;2023-12-22T04:54:10;1.13;;;0.50;;
13408;SDS011;6775;49.574;11.170;2023-12-22T04:56:38;1.30;;;0.37;;
13408;SDS011;6775;49.574;11.170;2023-12-22T04:59:07;0.60;;;0.50;;
13408;SDS011;6775;49.574;11.170;2023-12-22T05:01:35;1.87;;;0.50;;
13408;SDS011;6775;49.574;11.170;2023-12-22T05:04:04;3.07;;;0.37;;
13408;SDS011;6775;49.574;11.170;2023-12-22T05:06:35;1.30;;;0.60;;
13408;SDS011;6775;49.574;11.170;2023-12-22T05:09:03;2.27;;;0.53;;
13408;SDS011;6775;49.574;11.170;2023-12-22T05:11:31;1.00;;;0.47;;
13408;SDS011;6775;49.574;11.170;2023-12-22T05:13:59;1.27;;;0.50;;
13408;SDS011;6775;49.574;11.170;2023-12-22T05:16:29;1.60;;;0.50;;
13408;SDS011;6775;49.574;11.170;2023-12-22T05:18:58;2.83;;;0.60;;
13408;SDS011;6775;49.574;11.170;2023-12-22T05:21:26;1.60;;;0.60;;
13408;SDS011;6775;49.574;11.170;2023-12-22T05:23:54;0.80;;;0.40;;
13408;SDS011;6775;49.574;11.170;2023-12-22T05:26:23;1.07;;;0.40;;
13408;SDS011;6775;49.574;11.170;2023-12-22T05:28:51;1.00;;;0.50;;
13408;SDS011;6775;49.574;11.170;2023-12-22T05:31:19;0.60;;;0.30;;
13408;SDS011;6775;49.574;11.170;2023-12-22T05:33:49;1.53;;;0.50;;
13408;SDS011;6775;49.574;11.170;2023-12-22T05:36:17;3.03;;;0.37;;
13408;SDS011;6775;49.574;11.170;2023-12-22T05:38:45;0.77;;;0.30;;
13408;SDS011;6775;49.574;11.170;2023-12-22T05:41:14;0.83;;;0.30;;
13408;SDS011;6775;49.574;11.170;2023-12-22T05:43:42;1.80;;;0.30;;
13408;SDS011;6775;49.574;11.170;2023-12-22T05:46:10;1.33;;;0.50;;
13408;SDS011;6775;49.574;11.170;2023-12-22T05:48:38;1.60;;;0.50;;
13408;SDS011;6775;49.574;11.170;2023-12-22T05:51:08;0.90;;;0.90;;
13408;SDS011;6775;49.574;11.170;2023-12-22T05:53:39;2.97;;;0.90;;
13408;SDS011;6775;49.574;11.170;2023-12-22T05:56:16;1.47;;;0.80;;
13408;SDS011;6775;49.574;11.170;2023-12-22T05:58:45;2.17;;;0.87;;
13408;SDS011;6775;49.574;11.170;2023-12-22T06:01:15;1.73;;;1.10;;
13408;SDS011;6775;49.574;11.170;2023-12-22T06:03:45;4.13;;;1.70;;
13408;SDS011;6775;49.574;11.170;2023-12-22T06:06:15;2.77;;;1.60;;
13408;SDS011;6775;49.574;11.170;2023-12-22T06:08:44;4.53;;;2.07;;
13408;SDS011;6775;49.574;11.170;2023-12-22T06:11:13;1.83;;;1.00;;
13408;SDS011;6775;49.574;11.170;2023-12-22T06:13:41;1.13;;;0.83;;
13408;SDS011;6775;49.574;11.170;2023-12-22T06:16:13;2.13;;;1.37;;
13408;SDS011;6775;49.574;11.170;2023-12-22T06:18:42;2.23;;;1.73;;
13408;SDS011;6775;49.574;11.170;2023-12-22T06:21:10;2.10;;;1.00;;
13408;SDS011;6775;49.574;11.170;2023-12-22T06:23:40;2.07;;;1.20;;
13408;SDS011;6775;49.574;11.170;2023-12-22T06:26:08;2.17;;;1.00;;
13408;SDS011;6775;49.574;11.170;2023-12-22T06:28:38;1.23;;;0.60;;
13408;SDS011;6775;49.574;11.170;2023-12-22T06:31:15;1.40;;;0.53;;
13408;SDS011;6775;49.574;11.170;2023-12-22T06:33:46;0.50;;;0.40;;
13408;SDS011;6775;49.574;11.170;2023-12-22T06:36:19;1.83;;;0.60;;
13408;SDS011;6775;49.574;11.170;2023-12-22T06:38:49;3.27;;;0.40;;
13408;SDS011;6775;49.574;11.170;2023-12-22T06:41:19;1.57;;;0.40;;
13408;SDS011;6775;49.574;11.170;2023-12-22T06:43:53;2.60;;;0.70;;
13408;SDS011;6775;49.574;11.170;2023-12-22T06:46:23;1.83;;;0.50;;
13408;SDS011;6775;49.574;11.170;2023-12-22T06:48:53;0.37;;;0.23;;
13408;SDS011;6775;49.574;11.170;2023-12-22T06:51:23;1.90;;;0.60;;
13408;SDS011;6775;49.574;11.170;2023-12-22T06:53:54;0.50;;;0.50;;
13408;SDS011;6775;49.574;11.170;2023-12-22T06:56:23;0.70;;;0.30;;
13408;SDS011;6775;49.574;11.170;2023-12-22T06:58:53;1.43;;;0.50;;
13408;SDS011;6775;49.574;11.170;2023-12-22T07:01:24;1.80;;;0.40;;
13408;SDS011;6775;49.574;11.170;2023-12-22T07:03:55;1.27;;;0.40;;
13408;SDS011;6775;49.574;11.170;2023-12-22T07:06:24;1.47;;;0.60;;
13408;SDS011;6775;49.574;11.170;2023-12-22T07:11:59;0.60;;;0.40;;
13408;SDS011;6775;49.574;11.170;2023-12-22T07:14:27;0.50;;;0.40;;
13408;SDS011;6775;49.574;11.170;2023-12-22T07:16:55;1.60;;;0.50;;
13408;SDS011;6775;49.574;11.170;2023-12-22T07:19:26;2.80;;;0.93;;
13408;SDS011;6775;49.574;11.170;2023-12-22T07:21:54;2.27;;;0.77;;
13408;SDS011;6775;49.574;11.170;2023-12-22T07:24:22;0.70;;;0.60;;
13408;SDS011;6775;49.574;11.170;2023-12-22T07:26:52;1.90;;;1.03;;
13408;SDS011;6775;49.574;11.170;2023-12-22T07:29:21;1.37;;;0.73;;
13408;SDS011;6775;49.574;11.170;2023-12-22T07:31:50;1.60;;;0.80;;
13408;SDS011;6775;49.574;11.170;2023-12-22T07:34:18;0.70;;;0.60;;
13408;SDS011;6775;49.574;11.170;2023-12-22T07:36:48;2.23;;;0.63;;
13408;SDS011;6775;49.574;11.170;2023-12-22T07:39:31;1.10;;;0.90;;
13408;SDS011;6775;49.574;11.170;2023-12-22T07:42:02;2.40;;;1.10;;
13408;SDS011;6775;49.574;11.170;2023-12-22T07:44:32;1.97;;;1.00;;
13408;SDS011;6775;49.574;11.170;2023-12-22T07:47:01;1.57;;;0.90;;
13408;SDS011;6775;49.574;11.170;2023-12-22T07:49:29;1.40;;;0.70;;
13408;SDS011;6775;49.574;11.170;2023-12-22T07:51:58;1.67;;;0.77;;
13408;SDS011;6775;49.574;11.170;2023-12-22T07:54:29;1.57;;;1.00;;
13408;SDS011;6775;49.574;11.170;2023-12-22T07:56:57;2.73;;;1.20;;
13408;SDS011;6775;49.574;11.170;2023-12-22T07:59:27;2.47;;;1.30;;
13408;SDS011;6775;49.574;11.170;2023-12-22T08:01:57;1.43;;;1.13;;
13408;SDS011;6775;49.574;11.170;2023-12-22T08:04:27;2.10;;;1.07;;
13408;SDS011;6775;49.574;11.170;2023-12-22T08:06:55;1.63;;;0.87;;
13408;SDS011;6775;49.574;11.170;2023-12-22T08:09:23;1.73;;;0.90;;
13408;SDS011;6775;49.574;11.170;2023-12-22T08:11:51;2.40;;;1.30;;
13408;SDS011;6775;49.574;11.170;2023-12-22T08:14:19;3.07;;;0.90;;
13408;SDS011;6775;49.574;11.170;2023-12-22T08:16:50;2.23;;;0.73;;
13408;SDS011;6775;49.574;11.170;2023-12-22T08:19:18;2.87;;;0.80;;
13408;SDS011;6775;49.574;11.170;2023-12-22T08:21:47;4.63;;;1.00;;
13408;SDS011;6775;49.574;11.170;2023-12-22T08:24:18;2.07;;;0.70;;
13408;SDS011;6775;49.574;11.170;2023-12-22T08:26:49;3.17;;;0.70;;
13408;SDS011;6775;49.574;11.170;2023-12-22T08:29:18;2.40;;;0.83;;
13408;SDS011;6775;49.574;11.170;2023-12-22T08:31:46;0.87;;;0.70;;
13408;SDS011;6775;49.574;11.170;2023-12-22T08:34:16;1.90;;;0.90;;
13408;SDS011;6775;49.574;11.170;2023-12-22T08:36:44;1.60;;;0.73;;
13408;SDS011;6775;49.574;11.170;2023-12-22T08:39:13;1.03;;;0.57;;
13408;SDS011;6775;49.574;11.170;2023-12-22T08:41:41;2.10;;;0.70;;
13408;SDS011;6775;49.574;11.170;2023-12-22T08:44:10;1.03;;;0.70;;
13408;SDS011;6775;49.574;11.170;2023-12-22T08:46:41;1.17;;;0.70;;
13408;SDS011;6775;49.574;11.170;2023-12-22T08:49:09;1.97;;;0.70;;
13408;SDS011;6775;49.574;11.170;2023-12-22T08:51:39;1.67;;;0.67;;
13408;SDS011;6775;49.574;11.170;2023-12-22T08:54:08;2.33;;;0.70;;
13408;SDS011;6775;49.574;11.170;2023-12-22T08:56:36;3.73;;;0.80;;
13408;SDS011;6775;49.574;11.170;2023-12-22T08:59:04;0.80;;;0.70;;
13408;SDS011;6775;49.574;11.170;2023-12-22T09:01:34;0.60;;;0.57;;
13408;SDS011;6775;49.574;11.170;2023-12-22T09:04:03;0.70;;;0.60;;
13408;SDS011;6775;49.574;11.170;2023-12-22T09:06:33;2.07;;;0.70;;
13408;SDS011;6775;49.574;11.170;2023-12-22T09:09:03;2.20;;;0.97;;
13408;SDS011;6775;49.574;11.170;2023-12-22T09:11:32;1.10;;;0.70;;
13408;SDS011;6775;49.574;11.170;2023-12-22T09:14:00;2.53;;;1.20;;
13408;SDS011;6775;49.574;11.170;2023-12-22T09:16:28;3.90;;;2.23;;
13408;SDS011;6775;49.574;11.170;2023-12-22T09:18:57;3.77;;;2.33;;
13408;SDS011;6775;49.574;11.170;2023-12-22T09:21:25;3.33;;;2.40;;
13408;SDS011;6775;49.574;11.170;2023-12-22T09:23:53;3.10;;;1.70;;
13408;SDS011;6775;49.574;11.170;2023-12-22T09:26:23;1.50;;;1.40;;
13408;SDS011;6775;49.574;11.170;2023-12-22T09:28:54;1.60;;;1.27;;
13408;SDS011;6775;49.574;11.170;2023-12-22T09:31:23;2.13;;;1.20;;
13408;SDS011;6775;49.574;11.170;2023-12-22T09:33:51;3.07;;;1.57;;
13408;SDS011;6775;49.574;11.170;2023-12-22T09:36:19;3.47;;;1.27;;
13408;SDS011;6775;49.574;11.170;2023-12-22T09:38:48;2.27;;;1.40;;
13408;SDS011;6775;49.574;11.170;2023-12-22T09:41:16;1.30;;;1.00;;
13408;SDS011;6775;49.574;11.170;2023-12-22T09:43:46;3.40;;;1.20;;
13408;SDS011;6775;49.574;11.170;2023-12-22T09:46:19;3.20;;;0.83;;
13408;SDS011;6775;49.574;11.170;2023-12-22T09:48:49;2.20;;;1.00;;
13408;SDS011;6775;49.574;11.170;2023-12-22T09:51:20;4.40;;;1.10;;
13408;SDS011;6775;49.574;11.170;2023-12-22T09:53:50;3.30;;;1.43;;
13408;SDS011;6775;49.574;11.170;2023-12-22T09:56:19;2.93;;;1.40;;
13408;SDS011;6775;49.574;11.170;2023-12-22T09:58:52;4.23;;;1.50;;
13408;SDS011;6775;49.574;11.170;2023-12-22T10:01:23;5.43;;;1.27;;
13408;SDS011;6775;49.574;11.170;2023-12-22T10:03:53;2.37;;;0.97;;
13408;SDS011;6775;49.574;11.170;2023-12-22T10:06:21;3.70;;;1.17;;
13408;SDS011;6775;49.574;11.170;2023-12-22T10:08:50;3.57;;;1.07;;
13408;SDS011;6775;49.574;11.170;2023-12-22T10:11:19;4.77;;;0.90;;
13408;SDS011;6775;49.574;11.170;2023-12-22T10:13:50;2.90;;;0.90;;
13408;SDS011;6775;49.574;11.170;2023-12-22T10:16:22;2.50;;;1.10;;
13408;SDS011;6775;49.574;11.170;2023-12-22T10:18:51;3.27;;;1.10;;
13408;SDS011;6775;49.574;11.170;2023-12-22T10:21:20;9.13;;;1.17;;
13408;SDS011;6775;49.574;11.170;2023-12-22T10:23:48;2.57;;;1.10;;
13408;SDS011;6775;49.574;11.170;2023-12-22T10:26:16;3.87;;;1.00;;
13408;SDS011;6775;49.574;11.170;2023-12-22T10:28:46;2.43;;;1.00;;
13408;SDS011;6775;49.574;11.170;2023-12-22T10:31:17;2.07;;;0.83;;
13408;SDS011;6775;49.574;11.170;2023-12-22T10:33:45;1.17;;;0.90;;
13408;SDS011;6775;49.574;11.170;2023-12-22T10:36:13;3.03;;;0.83;;
13408;SDS011;6775;49.574;11.170;2023-12-22T10:38:41;2.83;;;0.90;;
13408;SDS011;6775;49.574;11.170;2023-12-22T10:41:11;2.03;;;0.80;;
13408;SDS011;6775;49.574;11.170;2023-12-22T10:43:39;1.47;;;0.70;;
13408;SDS011;6775;49.574;11.170;2023-12-22T10:46:08;3.17;;;0.70;;
13408;SDS011;6775;49.574;11.170;2023-12-22T10:48:39;2.03;;;0.57;;
13408;SDS011;6775;49.574;11.170;2023-12-22T10:51:08;1.57;;;0.70;;
13408;SDS011;6775;49.574;11.170;2023-12-22T10:53:40;2.47;;;1.03;;
13408;SDS011;6775;49.574;11.170;2023-12-22T10:56:10;3.43;;;0.93;;
13408;SDS011;6775;49.574;11.170;2023-12-22T10:58:38;1.60;;;0.80;;
13408;SDS011;6775;49.574;11.170;2023-12-22T11:01:07;0.67;;;0.67;;
13408;SDS011;6775;49.574;11.170;2023-12-22T11:03:40;4.57;;;0.97;;
13408;SDS011;6775;49.574;11.170;2023-12-22T11:06:12;1.23;;;0.60;;
13408;SDS011;6775;49.574;11.170;2023-12-22T11:08:43;3.40;;;0.80;;
13408;SDS011;6775;49.574;11.170;2023-12-22T11:11:15;2.27;;;0.63;;
13408;SDS011;6775;49.574;11.170;2023-12-22T11:13:56;1.73;;;0.83;;
13408;SDS011;6775;49.574;11.170;2023-12-22T11:16:24;0.77;;;0.50;;
13408;SDS011;6775;49.574;11.170;2023-12-22T11:18:56;1.63;;;1.37;;
13408;SDS011;6775;49.574;11.170;2023-12-22T11:21:26;1.60;;;0.80;;
13408;SDS011;6775;49.574;11.170;2023-12-22T11:23:56;1.93;;;0.70;;
13408;SDS011;6775;49.574;11.170;2023-12-22T11:26:24;1.37;;;0.80;;
13408;SDS011;6775;49.574;11.170;2023-12-22T11:28:53;2.13;;;0.93;;
13408;SDS011;6775;49.574;11.170;2023-12-22T11:31:21;2.80;;;0.97;;
13408;SDS011;6775;49.574;11.170;2023-12-22T11:33:55;4.60;;;0.90;;
13408;SDS011;6775;49.574;11.170;2023-12-22T11:36:37;2.33;;;1.10;;
13408;SDS011;6775;49.574;11.170;2023-12-22T11:39:07;2.10;;;0.80;;
13408;SDS011;6775;49.574;11.170;2023-12-22T11:41:35;2.33;;;0.90;;
13408;SDS011;6775;49.574;11.170;2023-12-22T11:44:06;0.93;;;0.57;;
13408;SDS011;6775;49.574;11.170;2023-12-22T11:46:36;1.57;;;0.80;;
13408;SDS011;6775;49.574;11.170;2023-12-22T11:49:06;0.53;;;0.40;;
13408;SDS011;6775;49.574;11.170;2023-12-22T11:51:34;1.50;;;0.60;;
13408;SDS011;6775;49.574;11.170;2023-12-22T11:54:03;0.90;;;0.70;;
13408;SDS011;6775;49.574;11.170;2023-12-22T11:56:31;1.50;;;0.60;;
13408;SDS011;6775;49.574;11.170;2023-12-22T11:59:02;1.93;;;0.77;;
13408;SDS011;6775;49.574;11.170;2023-12-22T12:01:34;1.17;;;0.50;;
13408;SDS011;6775;49.574;11.170;2023-12-22T12:04:08;1.60;;;0.67;;
13408;SDS011;6775;49.574;11.170;2023-12-22T12:06:36;1.03;;;0.60;;
13408;SDS011;6775;49.574;11.170;2023-12-22T12:09:05;1.90;;;0.70;;
13408;SDS011;6775;49.574;11.170;2023-12-22T12:14:41;0.80;;;0.50;;
13408;SDS011;6775;49.574;11.170;2023-12-22T12:17:11;1.77;;;0.80;;
13408;SDS011;6775;49.574;11.170;2023-12-22T12:19:47;3.73;;;1.07;;
13408;SDS011;6775;49.574;11.170;2023-12-22T12:22:17;2.20;;;1.07;;
13408;SDS011;6775;49.574;11.170;2023-12-22T12:24:50;3.20;;;1.40;;
13408;SDS011;6775;49.574;11.170;2023-12-22T12:27:19;3.93;;;1.27;;
13408;SDS011;6775;49.574;11.170;2023-12-22T12:29:48;2.73;;;0.80;;
13408;SDS011;6775;49.574;11.170;2023-12-22T12:32:18;4.00;;;1.33;;
13408;SDS011;6775;49.574;11.170;2023-12-22T12:34:52;2.57;;;1.23;;
13408;SDS011;6775;49.574;11.170;2023-12-22T12:37:22;6.23;;;1.33;;
13408;SDS011;6775;49.574;11.170;2023-12-22T12:39:51;3.70;;;1.40;;
13408;SDS011;6775;49.574;11.170;2023-12-22T12:42:27;2.13;;;1.30;;
13408;SDS011;6775;49.574;11.170;2023-12-22T12:44:57;1.53;;;1.30;;
13408;SDS011;6775;49.574;11.170;2023-12-22T12:47:25;4.23;;;1.30;;
13408;SDS011;6775;49.574;11.170;2023-12-22T12:49:58;2.40;;;1.23;;
13408;SDS011;6775;49.574;11.170;2023-12-22T12:52:27;4.57;;;2.23;;
13408;SDS011;6775;49.574;11.170;2023-12-22T12:54:57;3.67;;;1.50;;
13408;SDS011;6775;49.574;11.170;2023-12-22T12:57:27;2.80;;;1.63;;
13408;SDS011;6775;49.574;11.170;2023-12-22T12:59:55;3.40;;;1.80;;
13408;SDS011;6775;49.574;11.170;2023-12-22T13:02:24;4.87;;;1.60;;
13408;SDS011;6775;49.574;11.170;2023-12-22T13:04:53;3.87;;;1.30;;
13408;SDS011;6775;49.574;11.170;2023-12-22T13:07:26;6.23;;;2.13;;
13408;SDS011;6775;49.574;11.170;2023-12-22T13:09:54;5.53;;;2.13;;
13408;SDS011;6775;49.574;11.170;2023-12-22T13:12:23;5.43;;;1.60;;
13408;SDS011;6775;49.574;11.170;2023-12-22T13:14:52;4.83;;;1.80;;
13408;SDS011;6775;49.574;11.170;2023-12-22T13:17:20;7.77;;;1.83;;
13408;SDS011;6775;49.574;11.170;2023-12-22T13:19:49;5.37;;;1.63;;
13408;SDS011;6775;49.574;11.170;2023-12-22T13:22:17;6.30;;;1.60;;
13408;SDS011;6775;49.574;11.170;2023-12-22T13:24:55;6.57;;;1.73;;
13408;SDS011;6775;49.574;11.170;2023-12-22T13:27:24;5.27;;;1.90;;
13408;SDS011;6775;49.574;11.170;2023-12-22T13:29:52;10.03;;;1.97;;
13408;SDS011;6775;49.574;11.170;2023-12-22T13:32:21;8.17;;;1.60;;
13408;SDS011;6775;49.574;11.170;2023-12-22T13:34:51;8.67;;;2.13;;
13408;SDS011;6775;49.574;11.170;2023-12-22T13:37:21;4.10;;;1.50;;
13408;SDS011;6775;49.574;11.170;2023-12-22T13:39:52;5.37;;;1.70;;
13408;SDS011;6775;49.574;11.170;2023-12-22T13:42:22;6.90;;;2.23;;
13408;SDS011;6775;49.574;11.170;2023-12-22T13:44:51;4.80;;;2.10;;
13408;SDS011;6775;49.574;11.170;2023-12-22T13:47:19;5.67;;;2.23;;
13408;SDS011;6775;49.574;11.170;2023-12-22T13:49:47;5.00;;;2.47;;
13408;SDS011;6775;49.574;11.170;2023-12-22T13:52:28;7.37;;;2.97;;
13408;SDS011;6775;49.574;11.170;2023-12-22T13:55:01;6.03;;;2.50;;
13408;SDS011;6775;49.574;11.170;2023-12-22T13:57:30;7.20;;;3.10;;
13408;SDS011;6775;49.574;11.170;2023-12-22T13:59:59;5.23;;;1.97;;
13408;SDS011;6775;49.574;11.170;2023-12-22T14:02:27;4.60;;;2.10;;
13408;SDS011;6775;49.574;11.170;2023-12-22T14:04:55;4.67;;;1.73;;
13408;SDS011;6775;49.574;11.170;2023-12-22T14:07:23;5.53;;;1.90;;
13408;SDS011;6775;49.574;11.170;2023-12-22T14:09:52;4.53;;;1.43;;
13408;SDS011;6775;49.574;11.170;2023-12-22T14:12:20;3.10;;;1.30;;
13408;SDS011;6775;49.574;11.170;2023-12-22T14:14:58;5.60;;;1.60;;
13408;SDS011;6775;49.574;11.170;2023-12-22T14:17:27;4.97;;;1.37;;
13408;SDS011;6775;49.574;11.170;2023-12-22T14:19:57;4.33;;;1.53;;
13408;SDS011;6775;49.574;11.170;2023-12-22T14:22:26;3.97;;;1.53;;
13408;SDS011;6775;49.574;11.170;2023-12-22T14:24:54;2.67;;;1.20;;
13408;SDS011;6775;49.574;11.170;2023-12-22T14:27:23;4.50;;;1.63;;
13408;SDS011;6775;49.574;11.170;2023-12-22T14:29:51;3.90;;;1.80;;
13408;SDS011;6775;49.574;11.170;2023-12-22T14:32:21;2.20;;;1.40;;
13408;SDS011;6775;49.574;11.170;2023-12-22T14:34:49;2.53;;;1.40;;
13408;SDS011;6775;49.574;11.170;2023-12-22T14:37:16;2.73;;;1.67;;
13408;SDS011;6775;49.574;11.170;2023-12-22T14:39:44;6.03;;;1.60;;
13408;SDS011;6775;49.574;11.170;2023-12-22T14:42:13;2.87;;;1.40;;
13408;SDS011;6775;49.574;11.170;2023-12-22T14:44:41;3.37;;;1.50;;
13408;SDS011;6775;49.574;11.170;2023-12-22T14:47:09;2.50;;;1.53;;
13408;SDS011;6775;49.574;11.170;2023-12-22T14:49:41;1.73;;;1.23;;
13408;SDS011;6775;49.574;11.170;2023-12-22T14:52:09;2.30;;;1.20;;
13408;SDS011;6775;49.574;11.170;2023-12-22T14:54:37;4.00;;;1.40;;
13408;SDS011;6775;49.574;11.170;2023-12-22T14:57:05;2.20;;;1.10;;
13408;SDS011;6775;49.574;11.170;2023-12-22T14:59:34;3.33;;;0.90;;
13408;SDS011;6775;49.574;11.170;2023-12-22T15:02:02;4.33;;;1.50;;
13408;SDS011;6775;49.574;11.170;2023-12-22T15:04:31;1.57;;;1.10;;
13408;SDS011;6775;49.574;11.170;2023-12-22T15:07:01;4.57;;;1.90;;